createdAt,value
2023-01-07T00:00:01.905Z,95.92
2023-01-07T00:02:15.095Z,96.57
2023-01-07T00:04:21.463Z,95.47
2023-01-07T00:06:26.580Z,96.01
2023-01-07T00:08:30.690Z,96.60
2023-01-07T00:10:35.123Z,96.09
2023-01-07T00:12:38.133Z,95.92
2023-01-07T00:14:41.165Z,96.36
2023-01-07T00:16:44.541Z,96.64
2023-01-07T00:18:48.075Z,96.40
2023-01-07T00:20:52.414Z,96.24
2023-01-07T00:22:55.532Z,96.06
2023-01-07T00:24:58.563Z,96.06
2023-01-07T00:27:01.680Z,95.87
2023-01-07T00:29:06.089Z,96.63
2023-01-07T00:31:11.449Z,95.95
2023-01-07T00:33:15.633Z,96.38
2023-01-07T00:35:23.260Z,96.47
2023-01-07T00:37:45.333Z,95.98
2023-01-07T00:39:48.300Z,96.48
2023-01-07T00:42:08.708Z,95.87
2023-01-07T00:44:12.283Z,96.95
2023-01-07T00:46:16.119Z,96.73
2023-01-07T00:48:19.224Z,97.40
2023-01-07T00:50:22.410Z,95.88
2023-01-07T00:52:27.066Z,97.48
2023-01-07T00:54:30.197Z,97.00
2023-01-07T00:56:33.590Z,96.21
2023-01-07T00:58:36.696Z,95.37
2023-01-07T01:00:40.167Z,96.06
2023-01-07T01:02:43.206Z,96.94
2023-01-07T01:04:46.254Z,96.89
2023-01-07T01:06:49.299Z,96.44
2023-01-07T01:08:53.694Z,97.25
2023-01-07T01:10:56.729Z,96.20
2023-01-07T01:13:00.203Z,96.17
2023-01-07T01:15:03.693Z,97.22
2023-01-07T01:17:06.767Z,96.00
2023-01-07T01:19:09.767Z,96.43
2023-01-07T01:21:14.928Z,96.36
2023-01-07T01:23:18.224Z,96.08
2023-01-07T01:25:22.621Z,97.18
2023-01-07T01:27:25.785Z,96.84
2023-01-07T01:29:29.020Z,97.52
2023-01-07T01:31:32.400Z,95.54
2023-01-07T01:33:35.860Z,97.02
2023-01-07T01:35:41.470Z,97.45
2023-01-07T01:37:45.137Z,97.83
2023-01-07T01:39:49.121Z,96.35
2023-01-07T01:41:53.516Z,96.74
2023-01-07T01:43:56.715Z,97.06
2023-01-07T01:46:02.046Z,97.83
2023-01-07T01:48:07.770Z,96.45
2023-01-07T01:50:16.546Z,97.66
2023-01-07T01:52:22.491Z,96.54
2023-01-07T01:54:26.911Z,97.52
2023-01-07T01:56:35.319Z,97.23
2023-01-07T01:58:42.581Z,97.61
2023-01-07T02:00:46.462Z,98.06
2023-01-07T02:03:27.134Z,98.54
2023-01-07T02:05:33.954Z,98.50
2023-01-07T02:07:37.064Z,97.32
2023-01-07T02:09:42.457Z,98.53
2023-01-07T02:11:57.773Z,98.61
2023-01-07T02:14:12.890Z,98.52
2023-01-07T02:16:21.366Z,98.79
2023-01-07T02:18:43.637Z,97.18
2023-01-07T02:21:09.445Z,98.53
2023-01-07T02:23:36.889Z,98.08
2023-01-07T02:26:17.514Z,96.94
2023-01-07T02:28:52.671Z,98.62
2023-01-07T02:31:22.289Z,97.65
2023-01-07T02:33:35.351Z,98.40
2023-01-07T02:35:49.484Z,98.59
2023-01-07T02:37:57.412Z,97.69
2023-01-07T02:40:05.655Z,98.02
2023-01-07T02:42:14.807Z,98.47
2023-01-07T02:44:23.231Z,98.07
2023-01-07T02:46:30.883Z,98.24
2023-01-07T02:48:35.816Z,98.54
2023-01-07T02:50:38.956Z,98.28
2023-01-07T02:52:42.021Z,97.85
2023-01-07T02:54:45.455Z,97.98
2023-01-07T02:57:02.274Z,97.77
2023-01-07T02:59:18.479Z,99.07
2023-01-07T03:01:36.196Z,98.78
2023-01-07T03:03:54.750Z,97.51
2023-01-07T03:06:07.019Z,97.65
2023-01-07T03:08:44.168Z,98.40
2023-01-07T03:10:51.934Z,99.17
2023-01-07T03:13:01.007Z,98.41
2023-01-07T03:15:09.383Z,97.87
2023-01-07T03:17:18.682Z,98.89
2023-01-07T03:19:25.873Z,98.22
2023-01-07T03:21:29.546Z,97.85
2023-01-07T03:23:33.471Z,98.91
2023-01-07T03:25:40.565Z,98.02
2023-01-07T03:27:47.592Z,98.83
2023-01-07T03:29:51.245Z,98.42
2023-01-07T03:31:58.224Z,98.87
2023-01-07T03:34:05.338Z,98.63
2023-01-07T03:36:12.125Z,98.24
2023-01-07T03:38:16.557Z,98.23
2023-01-07T03:40:20.168Z,97.90
2023-01-07T03:42:42.319Z,97.56
2023-01-07T03:44:50.118Z,97.56
2023-01-07T03:46:54.925Z,97.79
2023-01-07T03:48:57.937Z,97.62
2023-01-07T03:51:01.032Z,97.76
2023-01-07T03:53:05.471Z,99.01
2023-01-07T03:55:11.745Z,98.31
2023-01-07T03:57:14.781Z,97.99
2023-01-07T03:59:17.768Z,98.98
2023-01-07T04:01:20.999Z,98.56
2023-01-07T04:03:24.396Z,98.31
2023-01-07T04:05:27.411Z,98.66
2023-01-07T04:07:30.594Z,98.79
2023-01-07T04:09:35.122Z,98.39
2023-01-07T04:11:38.160Z,98.85
2023-01-07T04:13:41.155Z,98.10
2023-01-07T04:15:44.673Z,98.20
2023-01-07T04:17:48.023Z,98.56
2023-01-07T04:19:51.874Z,98.95
2023-01-07T04:21:55.059Z,99.11
2023-01-07T04:23:58.183Z,99.21
2023-01-07T04:26:03.625Z,98.45
2023-01-07T04:28:06.868Z,98.37
2023-01-07T04:30:10.963Z,98.95
2023-01-07T04:32:14.734Z,98.84
2023-01-07T04:34:18.106Z,98.68
2023-01-07T04:36:21.227Z,98.44
2023-01-07T04:38:24.716Z,99.29
2023-01-07T04:40:30.333Z,99.19
2023-01-07T04:42:35.706Z,98.92
2023-01-07T04:44:39.372Z,98.04
2023-01-07T04:46:42.469Z,98.97
2023-01-07T04:48:45.710Z,97.80
2023-01-07T04:50:48.870Z,99.41
2023-01-07T04:52:52.729Z,99.34
2023-01-07T04:54:55.789Z,98.83
2023-01-07T04:56:58.874Z,98.11
2023-01-07T04:59:03.746Z,97.72
2023-01-07T05:01:07.223Z,98.08
2023-01-07T05:03:11.413Z,97.90
2023-01-07T05:05:14.585Z,98.58
2023-01-07T05:07:17.595Z,97.79
2023-01-07T05:09:21.396Z,97.83
2023-01-07T05:11:27.500Z,98.26
2023-01-07T05:13:35.316Z,97.90
2023-01-07T05:15:41.515Z,98.53
2023-01-07T05:17:44.954Z,97.98
2023-01-07T05:19:47.990Z,98.59
2023-01-07T05:21:52.405Z,97.36
2023-01-07T05:23:55.666Z,98.69
2023-01-07T05:25:59.127Z,98.78
2023-01-07T05:28:02.617Z,98.32
2023-01-07T05:30:08.812Z,97.14
2023-01-07T05:32:13.468Z,98.14
2023-01-07T05:34:17.824Z,98.40
2023-01-07T05:36:21.808Z,97.34
2023-01-07T05:38:25.268Z,97.26
2023-01-07T05:40:28.348Z,97.92
2023-01-07T05:42:32.046Z,98.21
2023-01-07T05:44:35.932Z,97.65
2023-01-07T05:46:38.950Z,97.38
2023-01-07T05:48:43.413Z,97.81
2023-01-07T05:50:46.469Z,97.28
2023-01-07T05:52:49.454Z,98.66
2023-01-07T05:54:52.430Z,97.67
2023-01-07T05:56:55.374Z,98.38
2023-01-07T05:58:58.382Z,98.09
2023-01-07T06:01:01.555Z,97.88
2023-01-07T06:03:05.222Z,98.09
2023-01-07T06:05:10.602Z,97.54
2023-01-07T06:07:13.774Z,97.60
2023-01-07T06:09:16.803Z,97.52
2023-01-07T06:11:19.895Z,98.64
2023-01-07T06:13:23.131Z,97.73
2023-01-07T06:15:26.118Z,98.00
2023-01-07T06:17:29.590Z,98.70
2023-01-07T06:19:32.642Z,97.92
2023-01-07T06:21:37.134Z,97.84
2023-01-07T06:23:40.480Z,98.16
2023-01-07T06:25:43.586Z,98.23
2023-01-07T06:27:46.708Z,98.63
2023-01-07T06:29:49.843Z,98.83
2023-01-07T06:31:52.875Z,97.94
2023-01-07T06:33:55.901Z,99.20
2023-01-07T06:35:58.930Z,97.76
2023-01-07T06:38:03.294Z,98.75
2023-01-07T06:40:07.917Z,98.62
2023-01-07T06:42:10.897Z,97.45
2023-01-07T06:44:14.008Z,97.67
2023-01-07T06:46:17.087Z,97.26
2023-01-07T06:48:20.166Z,97.35
2023-01-07T06:50:23.146Z,98.57
2023-01-07T06:52:28.203Z,98.70
2023-01-07T06:54:32.737Z,97.84
2023-01-07T06:56:35.722Z,97.54
2023-01-07T06:58:38.830Z,97.73
2023-01-07T07:00:41.846Z,96.75
2023-01-07T07:02:44.849Z,96.66
2023-01-07T07:04:47.848Z,97.14
2023-01-07T07:06:50.847Z,95.76
2023-01-07T07:08:53.849Z,95.02
2023-01-07T07:10:58.270Z,95.79
2023-01-07T07:13:01.296Z,93.47
2023-01-07T07:15:05.255Z,93.63
2023-01-07T07:17:08.463Z,93.91
2023-01-07T07:19:13.291Z,92.23
2023-01-07T07:21:16.354Z,91.70
2023-01-07T07:23:19.424Z,91.46
2023-01-07T07:25:22.495Z,90.55
2023-01-07T07:27:27.021Z,91.42
2023-01-07T07:29:29.989Z,91.22
2023-01-07T07:31:33.133Z,91.43
2023-01-07T07:33:36.353Z,91.23
2023-01-07T07:35:39.400Z,90.92
2023-01-07T07:37:42.588Z,89.75
2023-01-07T07:39:45.716Z,90.26
2023-01-07T07:41:51.640Z,90.24
2023-01-07T07:43:56.008Z,88.74
2023-01-07T07:45:59.202Z,89.15
2023-01-07T07:48:02.207Z,89.06
2023-01-07T07:50:05.892Z,87.85
2023-01-07T07:52:08.975Z,88.44
2023-01-07T07:54:12.076Z,88.05
2023-01-07T07:56:15.126Z,87.31
2023-01-07T07:58:18.151Z,87.12
2023-01-07T08:00:22.978Z,87.65
2023-01-07T08:02:26.155Z,87.75
2023-01-07T08:04:33.960Z,87.83
2023-01-07T08:06:37.222Z,87.73
2023-01-07T08:08:40.314Z,86.81
2023-01-07T08:10:43.550Z,87.88
2023-01-07T08:12:46.783Z,86.80
2023-01-07T08:14:49.847Z,86.16
2023-01-07T08:16:54.327Z,86.06
2023-01-07T08:18:57.488Z,86.13
2023-01-07T08:21:00.565Z,86.04
2023-01-07T08:23:04.957Z,87.53
2023-01-07T08:25:08.774Z,86.34
2023-01-07T08:27:11.806Z,87.67
2023-01-07T08:29:14.885Z,87.22
2023-01-07T08:31:18.202Z,86.96
2023-01-07T08:33:22.727Z,86.95
2023-01-07T08:35:25.919Z,86.11
2023-01-07T08:37:30.500Z,86.50
2023-01-07T08:39:33.530Z,86.43
2023-01-07T08:41:36.566Z,86.95
2023-01-07T08:43:39.730Z,84.96
2023-01-07T08:45:44.059Z,85.07
2023-01-07T08:47:47.728Z,86.12
2023-01-07T08:49:52.167Z,85.23
2023-01-07T08:51:55.207Z,85.82
2023-01-07T08:53:58.262Z,85.99
2023-01-07T08:56:01.345Z,85.46
2023-01-07T08:58:04.531Z,84.74
2023-01-07T09:00:09.055Z,85.71
2023-01-07T09:02:14.882Z,85.94
2023-01-07T09:04:17.977Z,85.34
2023-01-07T09:06:22.836Z,85.51
2023-01-07T09:08:26.021Z,86.19
2023-01-07T09:10:29.045Z,86.42
2023-01-07T09:12:32.154Z,86.30
2023-01-07T09:14:35.325Z,86.50
2023-01-07T09:16:38.349Z,84.26
2023-01-07T09:18:41.483Z,84.47
2023-01-07T09:20:44.879Z,84.31
2023-01-07T09:22:49.372Z,85.63
2023-01-07T09:24:52.407Z,86.71
2023-01-07T09:26:55.489Z,86.02
2023-01-07T09:28:58.691Z,84.50
2023-01-07T09:31:03.062Z,85.45
2023-01-07T09:33:06.210Z,83.55
2023-01-07T09:35:09.986Z,83.72
2023-01-07T09:37:13.071Z,84.36
2023-01-07T09:39:17.590Z,83.19
2023-01-07T09:41:27.277Z,82.24
2023-01-07T09:43:59.339Z,83.14
2023-01-07T09:46:01.236Z,83.75
2023-01-07T09:48:07.778Z,83.03
2023-01-07T09:50:19.828Z,83.68
2023-01-07T09:52:25.178Z,83.14
2023-01-07T09:54:31.271Z,83.34
2023-01-07T09:56:35.602Z,83.06
2023-01-07T09:58:39.271Z,81.91
2023-01-07T10:00:52.999Z,82.05
2023-01-07T10:03:15.323Z,83.29
2023-01-07T10:05:30.323Z,82.21
2023-01-07T10:07:37.932Z,83.05
2023-01-07T10:09:51.080Z,81.05
2023-01-07T10:12:00.406Z,81.54
2023-01-07T10:14:36.628Z,80.28
2023-01-07T10:16:43.468Z,80.04
2023-01-07T10:18:55.656Z,80.21
2023-01-07T10:21:04.889Z,79.29
2023-01-07T10:23:11.573Z,80.24
2023-01-07T10:25:19.612Z,79.35
2023-01-07T10:27:30.627Z,80.29
2023-01-07T10:29:37.151Z,80.46
2023-01-07T10:31:40.771Z,80.01
2023-01-07T10:33:45.303Z,79.13
2023-01-07T10:35:50.143Z,78.96
2023-01-07T10:37:53.697Z,79.03
2023-01-07T10:40:03.552Z,79.11
2023-01-07T10:42:13.688Z,78.54
2023-01-07T10:44:44.558Z,77.22
2023-01-07T10:46:55.905Z,77.75
2023-01-07T10:49:29.911Z,78.10
2023-01-07T10:52:00.121Z,76.08
2023-01-07T10:54:08.706Z,77.96
2023-01-07T10:56:23.175Z,76.27
2023-01-07T10:58:29.067Z,76.35
2023-01-07T11:00:32.120Z,78.19
2023-01-07T11:02:35.283Z,78.36
2023-01-07T11:04:38.378Z,77.10
2023-01-07T11:06:45.465Z,77.27
2023-01-07T11:08:50.093Z,78.46
2023-01-07T11:10:53.127Z,78.86
2023-01-07T11:12:59.096Z,79.19
2023-01-07T11:15:06.608Z,80.01
2023-01-07T11:17:14.068Z,77.80
2023-01-07T11:19:17.306Z,77.81
2023-01-07T11:21:43.572Z,77.58
2023-01-07T11:23:47.401Z,78.35
2023-01-07T11:25:50.635Z,79.62
2023-01-07T11:27:53.809Z,78.81
2023-01-07T11:29:59.294Z,79.06
2023-01-07T11:32:05.734Z,78.16
2023-01-07T11:34:21.004Z,79.90
2023-01-07T11:36:42.110Z,78.04
2023-01-07T11:38:45.652Z,78.80
2023-01-07T11:40:59.805Z,77.97
2023-01-07T11:43:05.191Z,77.94
2023-01-07T11:45:17.045Z,77.56
2023-01-07T11:47:21.568Z,77.26
2023-01-07T11:49:27.496Z,77.90
2023-01-07T11:51:40.577Z,79.36
2023-01-07T11:53:45.916Z,77.98
2023-01-07T11:55:57.929Z,77.13
2023-01-07T11:58:28.622Z,77.40
2023-01-07T12:00:24.784Z,76.74
2023-01-07T12:02:29.454Z,76.37
2023-01-07T12:04:33.661Z,74.73
2023-01-07T12:06:40.119Z,76.68
2023-01-07T12:08:44.565Z,74.29
2023-01-07T12:10:47.623Z,74.87
2023-01-07T12:12:50.597Z,75.81
2023-01-07T12:14:53.696Z,76.06
2023-01-07T12:16:58.880Z,76.04
2023-01-07T12:19:15.531Z,75.65
2023-01-07T12:21:37.119Z,75.26
2023-01-07T12:23:49.653Z,74.49
2023-01-07T12:25:58.398Z,74.00
2023-01-07T12:28:08.231Z,74.51
2023-01-07T12:30:24.928Z,74.74
2023-01-07T12:32:36.558Z,75.53
2023-01-07T12:34:48.492Z,74.48
2023-01-07T12:36:56.462Z,75.62
2023-01-07T12:39:03.245Z,75.29
2023-01-07T12:41:10.851Z,75.71
2023-01-07T12:43:16.698Z,76.22
2023-01-07T12:45:23.555Z,75.38
2023-01-07T12:47:32.506Z,75.71
2023-01-07T12:49:42.865Z,75.96
2023-01-07T12:51:52.286Z,75.55
2023-01-07T12:53:58.916Z,75.84
2023-01-07T12:56:06.463Z,75.75
2023-01-07T12:58:16.946Z,75.45
2023-01-07T13:00:23.800Z,75.92
2023-01-07T13:02:35.761Z,76.61
2023-01-07T13:04:47.162Z,76.53
2023-01-07T13:06:54.455Z,76.27
2023-01-07T13:08:59.851Z,77.32
2023-01-07T13:11:05.413Z,76.97
2023-01-07T13:13:14.908Z,77.16
2023-01-07T13:15:22.078Z,77.27
2023-01-07T13:17:27.077Z,76.65
2023-01-07T13:19:30.176Z,75.15
2023-01-07T13:21:34.664Z,77.57
2023-01-07T13:23:52.220Z,76.05
2023-01-07T13:26:07.313Z,75.85
2023-01-07T13:28:27.830Z,77.21
2023-01-07T13:30:39.026Z,76.09
2023-01-07T13:32:57.436Z,75.75
2023-01-07T13:35:14.757Z,77.53
2023-01-07T13:37:33.206Z,76.06
2023-01-07T13:39:49.696Z,76.29
2023-01-07T13:42:05.579Z,76.63
2023-01-07T13:44:28.105Z,78.07
2023-01-07T13:46:34.450Z,76.38
2023-01-07T13:48:38.503Z,77.42
2023-01-07T13:50:44.014Z,77.34
2023-01-07T13:52:57.116Z,76.64
2023-01-07T13:55:01.621Z,76.00
2023-01-07T13:57:41.617Z,75.76
2023-01-07T13:59:49.466Z,76.04
2023-01-07T14:02:18.152Z,75.51
2023-01-07T14:04:38.653Z,77.22
2023-01-07T14:06:42.603Z,77.21
2023-01-07T14:08:47.745Z,77.90
2023-01-07T14:10:53.283Z,76.95
2023-01-07T14:13:10.958Z,77.18
2023-01-07T14:16:01.691Z,77.51
2023-01-07T14:18:24.310Z,76.72
2023-01-07T14:20:32.468Z,76.83
2023-01-07T14:22:41.053Z,76.20
2023-01-07T14:25:08.810Z,76.79
2023-01-07T14:27:31.590Z,75.93
2023-01-07T14:29:47.111Z,76.56
2023-01-07T14:31:51.353Z,76.74
2023-01-07T14:33:58.193Z,77.69
2023-01-07T14:36:02.885Z,75.86
2023-01-07T14:38:39.427Z,76.11
2023-01-07T14:41:07.747Z,77.55
2023-01-07T14:43:47.341Z,76.30
2023-01-07T14:45:54.832Z,76.12
2023-01-07T14:47:57.932Z,78.29
2023-01-07T14:50:14.418Z,77.83
2023-01-07T14:52:26.978Z,76.23
2023-01-07T14:55:05.423Z,76.86
2023-01-07T14:57:21.282Z,77.56
2023-01-07T14:59:38.137Z,77.42
2023-01-07T15:01:49.921Z,76.48
2023-01-07T15:04:18.166Z,78.14
2023-01-07T15:06:25.756Z,77.66
2023-01-07T15:08:50.508Z,77.75
2023-01-07T15:11:12.192Z,77.80
2023-01-07T15:13:37.000Z,77.88
2023-01-07T15:15:59.019Z,78.37
2023-01-07T15:18:02.393Z,78.25
2023-01-07T15:20:06.293Z,77.45
2023-01-07T15:22:18.219Z,78.58
2023-01-07T15:24:26.845Z,78.51
2023-01-07T15:26:37.745Z,78.23
2023-01-07T15:28:48.593Z,78.26
2023-01-07T15:30:58.296Z,77.49
2023-01-07T15:33:07.506Z,77.81
2023-01-07T15:35:16.415Z,77.50
2023-01-07T15:37:20.129Z,77.73
2023-01-07T15:39:25.121Z,77.03
2023-01-07T15:41:31.784Z,77.06
2023-01-07T15:43:34.800Z,76.83
2023-01-07T15:45:39.350Z,77.17
2023-01-07T15:47:43.490Z,76.72
2023-01-07T15:49:46.617Z,77.27
2023-01-07T15:51:51.270Z,77.44
2023-01-07T15:53:56.082Z,78.66
2023-01-07T15:56:01.149Z,77.17
2023-01-07T15:58:06.100Z,76.87
2023-01-07T16:00:10.361Z,78.26
2023-01-07T16:02:22.240Z,78.90
2023-01-07T16:04:28.068Z,77.25
2023-01-07T16:06:35.030Z,78.39
2023-01-07T16:08:38.239Z,78.57
2023-01-07T16:10:41.347Z,78.59
2023-01-07T16:12:50.449Z,78.92
2023-01-07T16:14:53.562Z,79.29
2023-01-07T16:17:11.641Z,78.65
2023-01-07T16:19:20.468Z,79.34
2023-01-07T16:21:24.174Z,79.25
2023-01-07T16:23:28.680Z,80.11
2023-01-07T16:25:34.874Z,80.43
2023-01-07T16:27:38.727Z,80.24
2023-01-07T16:29:51.024Z,80.49
2023-01-07T16:31:54.657Z,79.97
2023-01-07T16:33:58.771Z,80.46
2023-01-07T16:36:07.550Z,79.75
2023-01-07T16:38:11.341Z,80.49
2023-01-07T16:40:21.908Z,80.24
2023-01-07T16:42:27.120Z,80.99
2023-01-07T16:45:00.644Z,81.14
2023-01-07T16:47:08.180Z,81.34
2023-01-07T16:49:29.606Z,81.83
2023-01-07T16:51:38.605Z,82.47
2023-01-07T16:53:41.777Z,82.35
2023-01-07T16:55:49.239Z,82.71
2023-01-07T16:57:52.321Z,82.69
2023-01-07T16:59:57.213Z,83.37
2023-01-07T17:02:03.205Z,82.96
2023-01-07T17:04:10.050Z,83.31
2023-01-07T17:06:13.190Z,84.21
2023-01-07T17:08:19.948Z,84.16
2023-01-07T17:10:26.476Z,84.44
2023-01-07T17:12:30.965Z,84.43
2023-01-07T17:14:50.076Z,84.45
2023-01-07T17:17:00.055Z,85.05
2023-01-07T17:19:25.465Z,85.04
2023-01-07T17:21:40.271Z,85.91
2023-01-07T17:23:45.611Z,84.97
2023-01-07T17:25:48.693Z,85.93
2023-01-07T17:27:53.909Z,85.05
2023-01-07T17:29:57.103Z,85.67
2023-01-07T17:32:00.197Z,85.71
2023-01-07T17:34:03.374Z,86.19
2023-01-07T17:36:07.248Z,86.40
2023-01-07T17:38:13.290Z,85.54
2023-01-07T17:40:18.771Z,86.55
2023-01-07T17:42:41.338Z,85.99
2023-01-07T17:44:45.757Z,86.66
2023-01-07T17:46:49.043Z,85.54
2023-01-07T17:48:52.450Z,85.54
2023-01-07T17:50:57.182Z,85.60
2023-01-07T17:53:00.629Z,86.62
2023-01-07T17:55:04.163Z,86.06
2023-01-07T17:57:09.799Z,86.76
2023-01-07T17:59:15.799Z,86.17
2023-01-07T18:01:20.513Z,86.71
2023-01-07T18:03:23.892Z,86.22
2023-01-07T18:05:27.544Z,86.71
2023-01-07T18:07:30.689Z,86.87
2023-01-07T18:09:33.743Z,85.66
2023-01-07T18:11:56.244Z,85.73
2023-01-07T18:14:01.050Z,85.35
2023-01-07T18:16:04.678Z,86.30
2023-01-07T18:18:07.875Z,86.79
2023-01-07T18:20:11.922Z,86.25
2023-01-07T18:22:15.091Z,87.19
2023-01-07T18:24:20.074Z,87.19
2023-01-07T18:26:23.278Z,86.83
2023-01-07T18:28:26.502Z,88.06
2023-01-07T18:30:31.515Z,86.88
2023-01-07T18:32:34.596Z,86.48
2023-01-07T18:34:38.122Z,87.65
2023-01-07T18:36:41.614Z,87.84
2023-01-07T18:38:44.853Z,86.55
2023-01-07T18:40:48.032Z,88.46
2023-01-07T18:42:51.120Z,88.32
2023-01-07T18:44:54.176Z,88.14
2023-01-07T18:46:58.867Z,87.89
2023-01-07T18:49:02.078Z,88.45
2023-01-07T18:51:10.532Z,88.34
2023-01-07T18:53:14.160Z,87.85
2023-01-07T18:55:19.367Z,87.85
2023-01-07T18:57:22.577Z,88.44
2023-01-07T18:59:25.770Z,88.37
2023-01-07T19:01:28.906Z,88.20
2023-01-07T19:03:33.839Z,87.95
2023-01-07T19:05:40.161Z,89.53
2023-01-07T19:07:43.536Z,89.39
2023-01-07T19:09:47.093Z,89.12
2023-01-07T19:11:50.363Z,88.40
2023-01-07T19:13:53.490Z,89.61
2023-01-07T19:15:56.523Z,90.28
2023-01-07T19:17:59.532Z,89.32
2023-01-07T19:20:03.997Z,89.96
2023-01-07T19:22:07.092Z,90.07
2023-01-07T19:24:10.398Z,88.38
2023-01-07T19:26:13.513Z,88.96
2023-01-07T19:28:16.571Z,88.27
2023-01-07T19:30:19.625Z,89.46
2023-01-07T19:32:22.887Z,88.45
2023-01-07T19:34:26.197Z,89.69
2023-01-07T19:36:30.652Z,88.99
2023-01-07T19:38:33.780Z,89.78
2023-01-07T19:40:36.859Z,90.15
2023-01-07T19:42:39.905Z,89.20
2023-01-07T19:44:43.163Z,87.98
2023-01-07T19:46:46.170Z,88.17
2023-01-07T19:48:49.734Z,87.86
2023-01-07T19:50:57.239Z,89.22
2023-01-07T19:53:01.745Z,89.58
2023-01-07T19:55:05.679Z,90.49
2023-01-07T19:57:09.048Z,90.52
2023-01-07T19:59:12.352Z,90.36
2023-01-07T20:01:17.986Z,90.94
2023-01-07T20:03:21.183Z,90.30
2023-01-07T20:05:25.941Z,90.54
2023-01-07T20:07:33.985Z,89.50
2023-01-07T20:09:40.687Z,90.49
2023-01-07T20:11:43.766Z,89.71
2023-01-07T20:13:47.990Z,90.81
2023-01-07T20:15:51.075Z,90.68
2023-01-07T20:17:54.197Z,90.15
2023-01-07T20:19:57.258Z,90.36
2023-01-07T20:22:00.355Z,90.85
2023-01-07T20:24:04.408Z,90.40
2023-01-07T20:26:11.959Z,90.18
2023-01-07T20:28:15.040Z,89.38
2023-01-07T20:30:18.178Z,90.10
2023-01-07T20:32:21.217Z,89.62
2023-01-07T20:34:24.284Z,89.74
2023-01-07T20:36:29.516Z,89.88
2023-01-07T20:38:32.647Z,89.82
2023-01-07T20:40:35.844Z,90.38
2023-01-07T20:42:40.431Z,90.47
2023-01-07T20:44:43.524Z,90.57
2023-01-07T20:46:46.594Z,90.91
2023-01-07T20:48:49.906Z,89.97
2023-01-07T20:50:52.979Z,90.10
2023-01-07T20:52:56.116Z,90.16
2023-01-07T20:54:59.139Z,90.40
2023-01-07T20:57:02.661Z,90.21
2023-01-07T20:59:07.613Z,90.21
2023-01-07T21:01:14.229Z,90.74
2023-01-07T21:03:17.612Z,90.43
2023-01-07T21:05:22.955Z,91.32
2023-01-07T21:07:26.134Z,90.76
2023-01-07T21:09:29.293Z,89.85
2023-01-07T21:11:32.471Z,89.65
2023-01-07T21:13:35.645Z,89.83
2023-01-07T21:15:40.286Z,90.47
2023-01-07T21:17:43.871Z,91.22
2023-01-07T21:19:47.042Z,92.22
2023-01-07T21:21:50.687Z,92.03
2023-01-07T21:23:54.359Z,91.15
2023-01-07T21:25:58.730Z,90.20
2023-01-07T21:28:02.112Z,89.92
2023-01-07T21:30:06.335Z,89.89
2023-01-07T21:32:10.797Z,89.92
2023-01-07T21:34:15.417Z,90.48
2023-01-07T21:36:19.573Z,90.59
2023-01-07T21:38:22.828Z,90.60
2023-01-07T21:40:25.988Z,90.72
2023-01-07T21:42:29.090Z,91.25
2023-01-07T21:44:32.157Z,91.25
2023-01-07T21:46:35.318Z,90.90
2023-01-07T21:48:40.892Z,91.26
2023-01-07T21:50:43.920Z,90.84
2023-01-07T21:52:46.995Z,90.35
2023-01-07T21:54:51.858Z,91.49
2023-01-07T21:56:54.987Z,91.34
2023-01-07T21:58:58.102Z,91.17
2023-01-07T22:01:01.311Z,91.46
2023-01-07T22:03:04.970Z,91.01
2023-01-07T22:05:11.883Z,90.47
2023-01-07T22:07:16.047Z,90.59
2023-01-07T22:09:20.173Z,90.80
2023-01-07T22:11:25.004Z,90.49
2023-01-07T22:13:28.685Z,91.09
2023-01-07T22:15:32.888Z,91.24
2023-01-07T22:17:36.520Z,91.08
2023-01-07T22:19:39.796Z,90.81
2023-01-07T22:21:44.495Z,91.14
2023-01-07T22:23:48.477Z,90.59
2023-01-07T22:25:52.262Z,90.90
2023-01-07T22:27:57.811Z,90.56
2023-01-07T22:30:01.765Z,90.75
2023-01-07T22:32:05.213Z,90.76
2023-01-07T22:34:09.755Z,91.23
2023-01-07T22:36:13.636Z,91.40
2023-01-07T22:38:20.002Z,91.14
2023-01-07T22:40:23.246Z,91.55
2023-01-07T22:42:32.057Z,91.10
2023-01-07T22:44:37.927Z,91.30
2023-01-07T22:46:42.985Z,92.12
2023-01-07T22:48:46.091Z,92.19
2023-01-07T22:50:49.619Z,90.84
2023-01-07T22:52:53.010Z,91.19
2023-01-07T22:54:57.872Z,90.70
2023-01-07T22:57:01.422Z,91.42
2023-01-07T22:59:05.075Z,91.04
2023-01-07T23:01:12.948Z,91.20
2023-01-07T23:03:16.628Z,91.25
2023-01-07T23:05:20.040Z,91.01
2023-01-07T23:07:23.532Z,91.42
2023-01-07T23:09:26.827Z,91.27
2023-01-07T23:11:50.836Z,91.50
2023-01-07T23:13:54.207Z,91.52
2023-01-07T23:15:57.611Z,91.19
2023-01-07T23:18:00.815Z,91.20
2023-01-07T23:20:03.880Z,90.96
2023-01-07T23:22:06.983Z,91.53
2023-01-07T23:24:10.595Z,91.53
2023-01-07T23:26:14.794Z,91.76
2023-01-07T23:28:20.207Z,91.28
2023-01-07T23:30:23.589Z,91.62
2023-01-07T23:32:26.839Z,91.93
2023-01-07T23:34:30.047Z,91.52
2023-01-07T23:36:33.158Z,92.54
2023-01-07T23:38:36.718Z,92.59
2023-01-07T23:40:40.441Z,91.96
2023-01-07T23:42:46.273Z,92.07
2023-01-07T23:44:50.647Z,92.13
2023-01-07T23:46:53.699Z,92.16
2023-01-07T23:48:56.727Z,91.36
2023-01-07T23:51:06.003Z,92.25
2023-01-07T23:53:09.022Z,91.23
2023-01-07T23:55:12.009Z,91.59
2023-01-07T23:57:15.273Z,92.14
2023-01-07T23:59:18.794Z,91.66
